sensor_id;sensor_type;location;lat;lon;timestamp;P1;durP1;ratioP1;P2;durP2;ratioP2
37115;SDS011;23025;41.996;23.098;2022-10-16T00:00:09;1.48;;;1.38;;
37115;SDS011;23025;41.996;23.098;2022-10-16T00:02:35;2.22;;;2.13;;
37115;SDS011;23025;41.996;23.098;2022-10-16T00:05:02;0.77;;;0.50;;
37115;SDS011;23025;41.996;23.098;2022-10-16T00:07:29;3.00;;;2.80;;
37115;SDS011;23025;41.996;23.098;2022-10-16T00:09:56;1.92;;;1.77;;
37115;SDS011;23025;41.996;23.098;2022-10-16T00:12:23;0.93;;;0.88;;
37115;SDS011;23025;41.996;23.098;2022-10-16T00:14:49;1.25;;;1.17;;
37115;SDS011;23025;41.996;23.098;2022-10-16T00:17:16;0.80;;;0.75;;
37115;SDS011;23025;41.996;23.098;2022-10-16T00:19:42;1.25;;;1.15;;
37115;SDS011;23025;41.996;23.098;2022-10-16T00:22:09;1.02;;;0.68;;
37115;SDS011;23025;41.996;23.098;2022-10-16T00:24:36;0.47;;;0.45;;
37115;SDS011;23025;41.996;23.098;2022-10-16T00:27:04;0.63;;;0.52;;
37115;SDS011;23025;41.996;23.098;2022-10-16T00:29:30;0.98;;;0.98;;
37115;SDS011;23025;41.996;23.098;2022-10-16T00:31:56;1.50;;;0.82;;
37115;SDS011;23025;41.996;23.098;2022-10-16T00:34:23;1.02;;;1.02;;
37115;SDS011;23025;41.996;23.098;2022-10-16T00:36:49;1.40;;;1.30;;
37115;SDS011;23025;41.996;23.098;2022-10-16T00:39:16;3.38;;;2.67;;
37115;SDS011;23025;41.996;23.098;2022-10-16T00:41:42;1.60;;;1.50;;
37115;SDS011;23025;41.996;23.098;2022-10-16T00:46:55;1.98;;;1.88;;
37115;SDS011;23025;41.996;23.098;2022-10-16T00:49:22;1.73;;;1.63;;
37115;SDS011;23025;41.996;23.098;2022-10-16T00:51:49;0.60;;;0.30;;
37115;SDS011;23025;41.996;23.098;2022-10-16T00:54:17;1.30;;;1.27;;
37115;SDS011;23025;41.996;23.098;2022-10-16T00:56:44;0.98;;;0.98;;
37115;SDS011;23025;41.996;23.098;2022-10-16T00:59:14;0.95;;;0.93;;
37115;SDS011;23025;41.996;23.098;2022-10-16T01:01:41;1.08;;;1.05;;
37115;SDS011;23025;41.996;23.098;2022-10-16T01:04:09;1.50;;;1.40;;
37115;SDS011;23025;41.996;23.098;2022-10-16T01:06:36;1.40;;;1.30;;
37115;SDS011;23025;41.996;23.098;2022-10-16T01:09:10;0.63;;;0.60;;
37115;SDS011;23025;41.996;23.098;2022-10-16T01:11:38;3.50;;;1.73;;
37115;SDS011;23025;41.996;23.098;2022-10-16T01:14:09;1.08;;;1.02;;
37115;SDS011;23025;41.996;23.098;2022-10-16T01:16:38;1.00;;;0.90;;
37115;SDS011;23025;41.996;23.098;2022-10-16T01:19:11;1.95;;;1.30;;
37115;SDS011;23025;41.996;23.098;2022-10-16T01:21:39;1.00;;;0.70;;
37115;SDS011;23025;41.996;23.098;2022-10-16T01:24:08;1.20;;;0.95;;
37115;SDS011;23025;41.996;23.098;2022-10-16T01:26:42;1.35;;;1.25;;
37115;SDS011;23025;41.996;23.098;2022-10-16T01:29:13;2.25;;;2.15;;
37115;SDS011;23025;41.996;23.098;2022-10-16T01:31:41;0.85;;;0.70;;
37115;SDS011;23025;41.996;23.098;2022-10-16T01:34:11;1.25;;;1.20;;
37115;SDS011;23025;41.996;23.098;2022-10-16T01:36:40;0.30;;;0.30;;
37115;SDS011;23025;41.996;23.098;2022-10-16T01:39:09;1.48;;;1.38;;
37115;SDS011;23025;41.996;23.098;2022-10-16T01:41:38;1.02;;;0.98;;
37115;SDS011;23025;41.996;23.098;2022-10-16T01:44:06;0.90;;;0.70;;
37115;SDS011;23025;41.996;23.098;2022-10-16T01:46:35;0.77;;;0.77;;
37115;SDS011;23025;41.996;23.098;2022-10-16T01:49:03;1.42;;;1.05;;
37115;SDS011;23025;41.996;23.098;2022-10-16T01:51:30;0.43;;;0.40;;
37115;SDS011;23025;41.996;23.098;2022-10-16T01:53:57;0.82;;;0.82;;
37115;SDS011;23025;41.996;23.098;2022-10-16T01:56:24;0.65;;;0.65;;
37115;SDS011;23025;41.996;23.098;2022-10-16T01:58:52;0.47;;;0.47;;
37115;SDS011;23025;41.996;23.098;2022-10-16T02:01:20;0.70;;;0.70;;
37115;SDS011;23025;41.996;23.098;2022-10-16T02:03:49;1.17;;;1.15;;
37115;SDS011;23025;41.996;23.098;2022-10-16T02:06:17;1.80;;;1.70;;
37115;SDS011;23025;41.996;23.098;2022-10-16T02:08:44;1.08;;;1.08;;
37115;SDS011;23025;41.996;23.098;2022-10-16T02:11:11;1.08;;;1.00;;
37115;SDS011;23025;41.996;23.098;2022-10-16T02:13:38;1.75;;;1.70;;
37115;SDS011;23025;41.996;23.098;2022-10-16T02:16:06;1.85;;;1.75;;
37115;SDS011;23025;41.996;23.098;2022-10-16T02:18:33;1.33;;;1.33;;
37115;SDS011;23025;41.996;23.098;2022-10-16T02:21:02;1.42;;;1.20;;
37115;SDS011;23025;41.996;23.098;2022-10-16T02:23:35;0.90;;;0.90;;
37115;SDS011;23025;41.996;23.098;2022-10-16T02:28:29;0.47;;;0.32;;
37115;SDS011;23025;41.996;23.098;2022-10-16T02:31:02;1.65;;;1.55;;
37115;SDS011;23025;41.996;23.098;2022-10-16T02:33:29;1.25;;;1.08;;
37115;SDS011;23025;41.996;23.098;2022-10-16T02:35:57;0.70;;;0.60;;
37115;SDS011;23025;41.996;23.098;2022-10-16T02:38:25;1.00;;;0.93;;
37115;SDS011;23025;41.996;23.098;2022-10-16T02:40:52;0.95;;;0.77;;
37115;SDS011;23025;41.996;23.098;2022-10-16T02:43:19;1.15;;;1.05;;
37115;SDS011;23025;41.996;23.098;2022-10-16T02:45:45;1.30;;;1.20;;
37115;SDS011;23025;41.996;23.098;2022-10-16T02:48:12;0.93;;;0.90;;
37115;SDS011;23025;41.996;23.098;2022-10-16T02:50:38;0.85;;;0.75;;
37115;SDS011;23025;41.996;23.098;2022-10-16T02:53:05;0.77;;;0.77;;
37115;SDS011;23025;41.996;23.098;2022-10-16T02:55:33;0.82;;;0.65;;
37115;SDS011;23025;41.996;23.098;2022-10-16T02:57:59;3.42;;;2.30;;
37115;SDS011;23025;41.996;23.098;2022-10-16T03:00:26;0.90;;;0.88;;
37115;SDS011;23025;41.996;23.098;2022-10-16T03:02:53;1.50;;;1.40;;
37115;SDS011;23025;41.996;23.098;2022-10-16T03:05:20;0.98;;;0.82;;
37115;SDS011;23025;41.996;23.098;2022-10-16T03:07:46;1.67;;;0.80;;
37115;SDS011;23025;41.996;23.098;2022-10-16T03:10:13;1.48;;;1.33;;
37115;SDS011;23025;41.996;23.098;2022-10-16T03:12:40;0.90;;;0.77;;
37115;SDS011;23025;41.996;23.098;2022-10-16T03:15:07;1.42;;;1.08;;
37115;SDS011;23025;41.996;23.098;2022-10-16T03:17:34;1.80;;;1.73;;
37115;SDS011;23025;41.996;23.098;2022-10-16T03:20:00;0.63;;;0.60;;
37115;SDS011;23025;41.996;23.098;2022-10-16T03:22:27;0.90;;;0.90;;
37115;SDS011;23025;41.996;23.098;2022-10-16T03:24:53;1.15;;;1.02;;
37115;SDS011;23025;41.996;23.098;2022-10-16T03:27:20;1.38;;;1.27;;
37115;SDS011;23025;41.996;23.098;2022-10-16T03:29:48;1.55;;;1.45;;
37115;SDS011;23025;41.996;23.098;2022-10-16T03:32:15;1.50;;;1.40;;
37115;SDS011;23025;41.996;23.098;2022-10-16T03:34:41;0.82;;;0.75;;
37115;SDS011;23025;41.996;23.098;2022-10-16T03:37:07;0.60;;;0.60;;
37115;SDS011;23025;41.996;23.098;2022-10-16T03:39:34;0.30;;;0.30;;
37115;SDS011;23025;41.996;23.098;2022-10-16T03:42:00;2.55;;;0.80;;
37115;SDS011;23025;41.996;23.098;2022-10-16T03:44:27;1.90;;;1.80;;
37115;SDS011;23025;41.996;23.098;2022-10-16T03:46:55;0.60;;;0.52;;
37115;SDS011;23025;41.996;23.098;2022-10-16T03:49:22;1.23;;;1.20;;
37115;SDS011;23025;41.996;23.098;2022-10-16T03:51:48;1.15;;;0.98;;
37115;SDS011;23025;41.996;23.098;2022-10-16T03:54:15;1.95;;;1.85;;
37115;SDS011;23025;41.996;23.098;2022-10-16T03:56:41;0.68;;;0.68;;
37115;SDS011;23025;41.996;23.098;2022-10-16T03:59:08;0.85;;;0.85;;
37115;SDS011;23025;41.996;23.098;2022-10-16T04:01:34;0.40;;;0.40;;
37115;SDS011;23025;41.996;23.098;2022-10-16T04:04:02;1.75;;;1.65;;
37115;SDS011;23025;41.996;23.098;2022-10-16T04:06:28;1.17;;;1.08;;
37115;SDS011;23025;41.996;23.098;2022-10-16T04:08:55;1.30;;;1.27;;
37115;SDS011;23025;41.996;23.098;2022-10-16T04:11:21;1.15;;;0.65;;
37115;SDS011;23025;41.996;23.098;2022-10-16T04:13:48;0.55;;;0.40;;
37115;SDS011;23025;41.996;23.098;2022-10-16T04:16:14;0.82;;;0.55;;
37115;SDS011;23025;41.996;23.098;2022-10-16T04:18:41;0.52;;;0.52;;
37115;SDS011;23025;41.996;23.098;2022-10-16T04:21:09;1.88;;;1.77;;
37115;SDS011;23025;41.996;23.098;2022-10-16T04:23:35;1.70;;;1.60;;
37115;SDS011;23025;41.996;23.098;2022-10-16T04:26:02;1.67;;;1.60;;
37115;SDS011;23025;41.996;23.098;2022-10-16T04:28:28;1.50;;;1.40;;
37115;SDS011;23025;41.996;23.098;2022-10-16T04:30:55;1.70;;;1.60;;
37115;SDS011;23025;41.996;23.098;2022-10-16T04:33:21;2.85;;;2.65;;
37115;SDS011;23025;41.996;23.098;2022-10-16T04:35:48;0.90;;;0.88;;
37115;SDS011;23025;41.996;23.098;2022-10-16T04:38:16;0.68;;;0.63;;
37115;SDS011;23025;41.996;23.098;2022-10-16T04:40:43;1.65;;;1.55;;
37115;SDS011;23025;41.996;23.098;2022-10-16T04:43:10;1.17;;;1.08;;
37115;SDS011;23025;41.996;23.098;2022-10-16T04:45:36;0.85;;;0.85;;
37115;SDS011;23025;41.996;23.098;2022-10-16T04:48:03;0.40;;;0.40;;
37115;SDS011;23025;41.996;23.098;2022-10-16T04:50:29;1.15;;;1.05;;
37115;SDS011;23025;41.996;23.098;2022-10-16T04:52:56;1.77;;;1.67;;
37115;SDS011;23025;41.996;23.098;2022-10-16T04:55:24;0.95;;;0.95;;
37115;SDS011;23025;41.996;23.098;2022-10-16T04:57:50;1.85;;;1.75;;
37115;SDS011;23025;41.996;23.098;2022-10-16T05:00:17;1.75;;;1.63;;
37115;SDS011;23025;41.996;23.098;2022-10-16T05:02:43;1.27;;;1.13;;
37115;SDS011;23025;41.996;23.098;2022-10-16T05:05:10;1.38;;;1.35;;
37115;SDS011;23025;41.996;23.098;2022-10-16T05:07:36;1.27;;;1.15;;
37115;SDS011;23025;41.996;23.098;2022-10-16T05:10:03;2.33;;;2.22;;
37115;SDS011;23025;41.996;23.098;2022-10-16T05:12:31;0.57;;;0.43;;
37115;SDS011;23025;41.996;23.098;2022-10-16T05:14:58;0.90;;;0.90;;
37115;SDS011;23025;41.996;23.098;2022-10-16T05:17:24;1.08;;;1.05;;
37115;SDS011;23025;41.996;23.098;2022-10-16T05:19:51;0.88;;;0.77;;
37115;SDS011;23025;41.996;23.098;2022-10-16T05:22:17;1.38;;;1.27;;
37115;SDS011;23025;41.996;23.098;2022-10-16T05:24:44;0.93;;;0.90;;
37115;SDS011;23025;41.996;23.098;2022-10-16T05:27:10;0.60;;;0.50;;
37115;SDS011;23025;41.996;23.098;2022-10-16T05:29:45;1.58;;;1.48;;
37115;SDS011;23025;41.996;23.098;2022-10-16T05:32:12;1.48;;;1.38;;
37115;SDS011;23025;41.996;23.098;2022-10-16T05:34:38;2.08;;;1.73;;
37115;SDS011;23025;41.996;23.098;2022-10-16T05:37:05;2.33;;;2.20;;
37115;SDS011;23025;41.996;23.098;2022-10-16T05:39:31;2.25;;;1.90;;
37115;SDS011;23025;41.996;23.098;2022-10-16T05:41:58;0.85;;;0.85;;
37115;SDS011;23025;41.996;23.098;2022-10-16T05:44:24;1.98;;;1.45;;
37115;SDS011;23025;41.996;23.098;2022-10-16T05:46:52;0.43;;;0.43;;
37115;SDS011;23025;41.996;23.098;2022-10-16T05:49:18;1.38;;;1.27;;
37115;SDS011;23025;41.996;23.098;2022-10-16T05:51:45;2.10;;;1.75;;
37115;SDS011;23025;41.996;23.098;2022-10-16T05:54:12;2.33;;;2.15;;
37115;SDS011;23025;41.996;23.098;2022-10-16T05:56:38;0.95;;;0.93;;
37115;SDS011;23025;41.996;23.098;2022-10-16T05:59:05;3.03;;;1.45;;
37115;SDS011;23025;41.996;23.098;2022-10-16T06:01:31;3.67;;;2.55;;
37115;SDS011;23025;41.996;23.098;2022-10-16T06:03:59;2.40;;;2.20;;
37115;SDS011;23025;41.996;23.098;2022-10-16T06:06:27;1.83;;;1.73;;
37115;SDS011;23025;41.996;23.098;2022-10-16T06:08:55;2.22;;;2.03;;
37115;SDS011;23025;41.996;23.098;2022-10-16T06:11:22;1.60;;;1.48;;
37115;SDS011;23025;41.996;23.098;2022-10-16T06:13:49;1.38;;;1.27;;
37115;SDS011;23025;41.996;23.098;2022-10-16T06:16:16;2.60;;;2.40;;
37115;SDS011;23025;41.996;23.098;2022-10-16T06:18:42;6.75;;;6.20;;
37115;SDS011;23025;41.996;23.098;2022-10-16T06:21:11;1.65;;;1.55;;
37115;SDS011;23025;41.996;23.098;2022-10-16T06:23:38;1.55;;;1.45;;
37115;SDS011;23025;41.996;23.098;2022-10-16T06:26:05;1.80;;;1.33;;
37115;SDS011;23025;41.996;23.098;2022-10-16T06:28:31;0.95;;;0.93;;
37115;SDS011;23025;41.996;23.098;2022-10-16T06:30:58;1.42;;;1.33;;
37115;SDS011;23025;41.996;23.098;2022-10-16T06:33:25;1.17;;;1.08;;
37115;SDS011;23025;41.996;23.098;2022-10-16T06:35:51;3.50;;;2.47;;
37115;SDS011;23025;41.996;23.098;2022-10-16T06:38:19;1.70;;;1.60;;
37115;SDS011;23025;41.996;23.098;2022-10-16T06:40:46;1.30;;;1.20;;
37115;SDS011;23025;41.996;23.098;2022-10-16T06:43:13;1.80;;;1.60;;
37115;SDS011;23025;41.996;23.098;2022-10-16T06:45:40;2.85;;;2.38;;
37115;SDS011;23025;41.996;23.098;2022-10-16T06:48:06;1.33;;;1.20;;
37115;SDS011;23025;41.996;23.098;2022-10-16T06:50:33;3.08;;;2.88;;
37115;SDS011;23025;41.996;23.098;2022-10-16T06:52:59;2.35;;;2.17;;
37115;SDS011;23025;41.996;23.098;2022-10-16T06:55:27;1.17;;;1.13;;
37115;SDS011;23025;41.996;23.098;2022-10-16T06:57:54;3.17;;;2.97;;
37115;SDS011;23025;41.996;23.098;2022-10-16T07:00:23;2.50;;;2.30;;
37115;SDS011;23025;41.996;23.098;2022-10-16T07:02:49;4.45;;;2.47;;
37115;SDS011;23025;41.996;23.098;2022-10-16T07:05:16;2.95;;;1.95;;
37115;SDS011;23025;41.996;23.098;2022-10-16T07:07:42;2.88;;;2.67;;
37115;SDS011;23025;41.996;23.098;2022-10-16T07:10:09;1.33;;;1.30;;
37115;SDS011;23025;41.996;23.098;2022-10-16T07:12:37;2.47;;;2.28;;
37115;SDS011;23025;41.996;23.098;2022-10-16T07:15:04;11.65;;;2.30;;
37115;SDS011;23025;41.996;23.098;2022-10-16T07:17:30;1.73;;;1.60;;
37115;SDS011;23025;41.996;23.098;2022-10-16T07:19:57;1.77;;;1.35;;
37115;SDS011;23025;41.996;23.098;2022-10-16T07:22:23;2.70;;;2.25;;
37115;SDS011;23025;41.996;23.098;2022-10-16T07:24:50;2.35;;;2.25;;
37115;SDS011;23025;41.996;23.098;2022-10-16T07:27:17;2.13;;;1.92;;
37115;SDS011;23025;41.996;23.098;2022-10-16T07:29:45;3.25;;;2.97;;
37115;SDS011;23025;41.996;23.098;2022-10-16T07:32:12;3.70;;;2.75;;
37115;SDS011;23025;41.996;23.098;2022-10-16T07:34:38;2.30;;;2.08;;
37115;SDS011;23025;41.996;23.098;2022-10-16T07:37:05;2.15;;;1.95;;
37115;SDS011;23025;41.996;23.098;2022-10-16T07:39:31;2.13;;;2.03;;
37115;SDS011;23025;41.996;23.098;2022-10-16T07:41:57;2.35;;;2.15;;
37115;SDS011;23025;41.996;23.098;2022-10-16T07:44:24;2.28;;;2.13;;
37115;SDS011;23025;41.996;23.098;2022-10-16T07:46:52;3.05;;;2.17;;
37115;SDS011;23025;41.996;23.098;2022-10-16T07:49:18;2.38;;;2.17;;
37115;SDS011;23025;41.996;23.098;2022-10-16T07:51:45;2.70;;;1.42;;
37115;SDS011;23025;41.996;23.098;2022-10-16T07:54:12;3.92;;;3.08;;
37115;SDS011;23025;41.996;23.098;2022-10-16T07:56:38;3.85;;;3.63;;
37115;SDS011;23025;41.996;23.098;2022-10-16T07:59:05;3.22;;;2.40;;
37115;SDS011;23025;41.996;23.098;2022-10-16T08:01:31;1.83;;;1.73;;
37115;SDS011;23025;41.996;23.098;2022-10-16T08:03:59;4.03;;;3.72;;
37115;SDS011;23025;41.996;23.098;2022-10-16T08:06:26;3.45;;;3.15;;
37115;SDS011;23025;41.996;23.098;2022-10-16T08:08:52;4.60;;;4.30;;
37115;SDS011;23025;41.996;23.098;2022-10-16T08:11:19;3.83;;;3.63;;
37115;SDS011;23025;41.996;23.098;2022-10-16T08:13:45;3.55;;;3.25;;
37115;SDS011;23025;41.996;23.098;2022-10-16T08:16:12;3.63;;;3.30;;
37115;SDS011;23025;41.996;23.098;2022-10-16T08:18:39;4.22;;;3.92;;
37115;SDS011;23025;41.996;23.098;2022-10-16T08:21:07;4.05;;;3.67;;
37115;SDS011;23025;41.996;23.098;2022-10-16T08:23:34;2.53;;;2.33;;
37115;SDS011;23025;41.996;23.098;2022-10-16T08:26:04;4.18;;;1.95;;
37115;SDS011;23025;41.996;23.098;2022-10-16T08:28:31;3.25;;;2.25;;
37115;SDS011;23025;41.996;23.098;2022-10-16T08:31:04;4.32;;;3.92;;
37115;SDS011;23025;41.996;23.098;2022-10-16T08:33:30;3.17;;;2.33;;
37115;SDS011;23025;41.996;23.098;2022-10-16T08:35:57;3.28;;;3.10;;
37115;SDS011;23025;41.996;23.098;2022-10-16T08:38:25;5.22;;;4.70;;
37115;SDS011;23025;41.996;23.098;2022-10-16T08:40:51;3.38;;;3.03;;
37115;SDS011;23025;41.996;23.098;2022-10-16T08:43:28;3.75;;;3.53;;
37115;SDS011;23025;41.996;23.098;2022-10-16T08:46:10;2.55;;;2.42;;
37115;SDS011;23025;41.996;23.098;2022-10-16T08:48:43;2.25;;;2.05;;
37115;SDS011;23025;41.996;23.098;2022-10-16T08:51:11;4.20;;;3.45;;
37115;SDS011;23025;41.996;23.098;2022-10-16T08:53:41;5.70;;;5.20;;
37115;SDS011;23025;41.996;23.098;2022-10-16T08:56:09;2.53;;;2.22;;
37115;SDS011;23025;41.996;23.098;2022-10-16T08:58:35;3.13;;;2.92;;
37115;SDS011;23025;41.996;23.098;2022-10-16T09:01:03;4.13;;;3.03;;
37115;SDS011;23025;41.996;23.098;2022-10-16T09:03:33;2.72;;;2.53;;
37115;SDS011;23025;41.996;23.098;2022-10-16T09:06:09;4.13;;;3.15;;
37115;SDS011;23025;41.996;23.098;2022-10-16T09:08:39;3.47;;;2.30;;
37115;SDS011;23025;41.996;23.098;2022-10-16T09:11:11;3.75;;;3.08;;
37115;SDS011;23025;41.996;23.098;2022-10-16T09:13:43;2.85;;;2.65;;
37115;SDS011;23025;41.996;23.098;2022-10-16T09:16:15;2.30;;;2.10;;
37115;SDS011;23025;41.996;23.098;2022-10-16T09:18:44;2.78;;;2.03;;
37115;SDS011;23025;41.996;23.098;2022-10-16T09:21:13;4.03;;;3.75;;
37115;SDS011;23025;41.996;23.098;2022-10-16T09:23:41;4.22;;;3.85;;
37115;SDS011;23025;41.996;23.098;2022-10-16T09:26:11;4.65;;;4.35;;
37115;SDS011;23025;41.996;23.098;2022-10-16T09:28:38;3.67;;;3.47;;
37115;SDS011;23025;41.996;23.098;2022-10-16T09:31:05;4.18;;;2.85;;
37115;SDS011;23025;41.996;23.098;2022-10-16T09:33:33;3.10;;;2.47;;
37115;SDS011;23025;41.996;23.098;2022-10-16T09:36:00;3.90;;;3.60;;
37115;SDS011;23025;41.996;23.098;2022-10-16T09:38:29;3.60;;;2.92;;
37115;SDS011;23025;41.996;23.098;2022-10-16T09:40:57;3.28;;;2.92;;
37115;SDS011;23025;41.996;23.098;2022-10-16T09:43:25;3.17;;;2.95;;
37115;SDS011;23025;41.996;23.098;2022-10-16T09:45:59;3.95;;;3.20;;
37115;SDS011;23025;41.996;23.098;2022-10-16T09:50:55;5.15;;;3.90;;
37115;SDS011;23025;41.996;23.098;2022-10-16T09:53:22;2.35;;;2.17;;
37115;SDS011;23025;41.996;23.098;2022-10-16T09:55:48;2.17;;;1.95;;
37115;SDS011;23025;41.996;23.098;2022-10-16T09:58:16;3.15;;;2.47;;
37115;SDS011;23025;41.996;23.098;2022-10-16T10:00:48;2.08;;;1.95;;
37115;SDS011;23025;41.996;23.098;2022-10-16T10:03:15;6.32;;;2.92;;
37115;SDS011;23025;41.996;23.098;2022-10-16T10:05:52;1.80;;;1.17;;
37115;SDS011;23025;41.996;23.098;2022-10-16T10:08:18;3.70;;;2.25;;
37115;SDS011;23025;41.996;23.098;2022-10-16T10:10:45;3.08;;;2.65;;
37115;SDS011;23025;41.996;23.098;2022-10-16T10:13:16;2.85;;;2.45;;
37115;SDS011;23025;41.996;23.098;2022-10-16T10:15:45;2.67;;;2.30;;
37115;SDS011;23025;41.996;23.098;2022-10-16T10:18:16;3.15;;;2.75;;
37115;SDS011;23025;41.996;23.098;2022-10-16T10:20:43;3.55;;;3.25;;
37115;SDS011;23025;41.996;23.098;2022-10-16T10:23:19;4.93;;;3.40;;
37115;SDS011;23025;41.996;23.098;2022-10-16T10:25:49;3.70;;;3.08;;
37115;SDS011;23025;41.996;23.098;2022-10-16T10:28:24;4.00;;;3.65;;
37115;SDS011;23025;41.996;23.098;2022-10-16T10:30:59;2.58;;;2.40;;
37115;SDS011;23025;41.996;23.098;2022-10-16T10:33:33;2.90;;;2.60;;
37115;SDS011;23025;41.996;23.098;2022-10-16T10:36:05;3.30;;;2.58;;
37115;SDS011;23025;41.996;23.098;2022-10-16T10:38:37;3.72;;;3.45;;
37115;SDS011;23025;41.996;23.098;2022-10-16T10:41:13;3.72;;;3.42;;
37115;SDS011;23025;41.996;23.098;2022-10-16T10:43:45;3.13;;;2.58;;
37115;SDS011;23025;41.996;23.098;2022-10-16T10:46:18;5.60;;;5.25;;
37115;SDS011;23025;41.996;23.098;2022-10-16T10:48:50;3.72;;;3.42;;
37115;SDS011;23025;41.996;23.098;2022-10-16T10:51:20;3.08;;;2.88;;
37115;SDS011;23025;41.996;23.098;2022-10-16T10:54:07;3.60;;;3.28;;
37115;SDS011;23025;41.996;23.098;2022-10-16T10:56:41;3.72;;;3.45;;
37115;SDS011;23025;41.996;23.098;2022-10-16T10:59:12;3.00;;;2.80;;
37115;SDS011;23025;41.996;23.098;2022-10-16T11:01:44;2.60;;;2.40;;
37115;SDS011;23025;41.996;23.098;2022-10-16T11:04:26;2.13;;;1.92;;
37115;SDS011;23025;41.996;23.098;2022-10-16T11:06:57;3.65;;;3.35;;
37115;SDS011;23025;41.996;23.098;2022-10-16T11:09:25;3.67;;;3.38;;
37115;SDS011;23025;41.996;23.098;2022-10-16T11:11:54;3.88;;;3.53;;
37115;SDS011;23025;41.996;23.098;2022-10-16T11:14:23;3.88;;;3.13;;
37115;SDS011;23025;41.996;23.098;2022-10-16T11:16:54;4.55;;;3.55;;
37115;SDS011;23025;41.996;23.098;2022-10-16T11:19:25;3.75;;;3.22;;
37115;SDS011;23025;41.996;23.098;2022-10-16T11:21:56;4.00;;;3.70;;
37115;SDS011;23025;41.996;23.098;2022-10-16T11:24:29;6.30;;;4.25;;
37115;SDS011;23025;41.996;23.098;2022-10-16T11:26:57;3.92;;;3.53;;
37115;SDS011;23025;41.996;23.098;2022-10-16T11:29:28;4.03;;;3.15;;
37115;SDS011;23025;41.996;23.098;2022-10-16T11:31:58;3.70;;;3.13;;
37115;SDS011;23025;41.996;23.098;2022-10-16T11:34:27;4.32;;;3.92;;
37115;SDS011;23025;41.996;23.098;2022-10-16T11:36:56;3.15;;;2.92;;
37115;SDS011;23025;41.996;23.098;2022-10-16T11:39:24;10.07;;;4.88;;
37115;SDS011;23025;41.996;23.098;2022-10-16T11:41:53;4.72;;;3.38;;
37115;SDS011;23025;41.996;23.098;2022-10-16T11:44:31;4.40;;;4.18;;
37115;SDS011;23025;41.996;23.098;2022-10-16T11:47:05;3.03;;;2.83;;
37115;SDS011;23025;41.996;23.098;2022-10-16T11:49:34;5.60;;;5.20;;
37115;SDS011;23025;41.996;23.098;2022-10-16T11:52:03;4.70;;;4.28;;
37115;SDS011;23025;41.996;23.098;2022-10-16T11:54:33;4.90;;;4.38;;
37115;SDS011;23025;41.996;23.098;2022-10-16T11:57:05;3.72;;;3.42;;
37115;SDS011;23025;41.996;23.098;2022-10-16T11:59:36;4.18;;;3.88;;
37115;SDS011;23025;41.996;23.098;2022-10-16T12:04:33;3.78;;;3.38;;
37115;SDS011;23025;41.996;23.098;2022-10-16T12:09:28;4.40;;;3.65;;
37115;SDS011;23025;41.996;23.098;2022-10-16T12:11:55;5.13;;;4.82;;
37115;SDS011;23025;41.996;23.098;2022-10-16T12:14:33;4.70;;;4.32;;
37115;SDS011;23025;41.996;23.098;2022-10-16T12:17:01;2.88;;;2.55;;
37115;SDS011;23025;41.996;23.098;2022-10-16T12:19:30;6.03;;;4.43;;
37115;SDS011;23025;41.996;23.098;2022-10-16T12:21:59;5.03;;;3.08;;
37115;SDS011;23025;41.996;23.098;2022-10-16T12:24:33;4.65;;;4.22;;
37115;SDS011;23025;41.996;23.098;2022-10-16T12:27:00;4.00;;;2.97;;
37115;SDS011;23025;41.996;23.098;2022-10-16T12:29:30;5.22;;;4.82;;
37115;SDS011;23025;41.996;23.098;2022-10-16T12:31:58;4.95;;;4.55;;
37115;SDS011;23025;41.996;23.098;2022-10-16T12:34:26;4.57;;;4.28;;
37115;SDS011;23025;41.996;23.098;2022-10-16T12:36:56;6.22;;;5.85;;
37115;SDS011;23025;41.996;23.098;2022-10-16T12:39:35;3.88;;;2.95;;
37115;SDS011;23025;41.996;23.098;2022-10-16T12:42:04;3.53;;;3.22;;
37115;SDS011;23025;41.996;23.098;2022-10-16T12:44:34;4.28;;;3.88;;
37115;SDS011;23025;41.996;23.098;2022-10-16T12:47:00;5.40;;;5.05;;
37115;SDS011;23025;41.996;23.098;2022-10-16T12:49:31;5.60;;;5.28;;
37115;SDS011;23025;41.996;23.098;2022-10-16T12:51:58;4.10;;;3.80;;
37115;SDS011;23025;41.996;23.098;2022-10-16T12:54:27;4.60;;;4.20;;
37115;SDS011;23025;41.996;23.098;2022-10-16T12:56:58;5.40;;;3.28;;
37115;SDS011;23025;41.996;23.098;2022-10-16T12:59:36;4.22;;;3.92;;
37115;SDS011;23025;41.996;23.098;2022-10-16T13:04:55;5.07;;;4.57;;
37115;SDS011;23025;41.996;23.098;2022-10-16T13:07:35;3.30;;;3.10;;
37115;SDS011;23025;41.996;23.098;2022-10-16T13:10:06;3.75;;;3.22;;
37115;SDS011;23025;41.996;23.098;2022-10-16T13:12:45;4.18;;;3.88;;
37115;SDS011;23025;41.996;23.098;2022-10-16T13:15:22;4.35;;;4.00;;
37115;SDS011;23025;41.996;23.098;2022-10-16T13:17:53;5.32;;;4.13;;
37115;SDS011;23025;41.996;23.098;2022-10-16T13:20:23;3.92;;;3.63;;
37115;SDS011;23025;41.996;23.098;2022-10-16T13:22:55;3.13;;;2.92;;
37115;SDS011;23025;41.996;23.098;2022-10-16T13:25:28;4.28;;;2.70;;
37115;SDS011;23025;41.996;23.098;2022-10-16T13:27:59;3.47;;;3.17;;
37115;SDS011;23025;41.996;23.098;2022-10-16T13:30:27;4.82;;;4.43;;
37115;SDS011;23025;41.996;23.098;2022-10-16T13:32:55;3.85;;;3.55;;
37115;SDS011;23025;41.996;23.098;2022-10-16T13:35:25;3.63;;;3.33;;
37115;SDS011;23025;41.996;23.098;2022-10-16T13:38:02;3.78;;;3.47;;
37115;SDS011;23025;41.996;23.098;2022-10-16T13:40:29;4.75;;;4.25;;
37115;SDS011;23025;41.996;23.098;2022-10-16T13:42:55;3.72;;;3.42;;
37115;SDS011;23025;41.996;23.098;2022-10-16T13:45:24;3.72;;;3.42;;
37115;SDS011;23025;41.996;23.098;2022-10-16T13:48:00;4.13;;;3.88;;
37115;SDS011;23025;41.996;23.098;2022-10-16T13:53:02;4.20;;;3.90;;
37115;SDS011;23025;41.996;23.098;2022-10-16T13:55:29;4.55;;;4.18;;
37115;SDS011;23025;41.996;23.098;2022-10-16T13:58:04;5.03;;;4.63;;
37115;SDS011;23025;41.996;23.098;2022-10-16T14:00:32;3.47;;;3.28;;
37115;SDS011;23025;41.996;23.098;2022-10-16T14:02:59;5.13;;;4.00;;
37115;SDS011;23025;41.996;23.098;2022-10-16T14:05:27;3.90;;;3.25;;
37115;SDS011;23025;41.996;23.098;2022-10-16T14:07:53;6.88;;;6.45;;
37115;SDS011;23025;41.996;23.098;2022-10-16T14:10:22;4.35;;;4.05;;
37115;SDS011;23025;41.996;23.098;2022-10-16T14:12:55;4.20;;;3.90;;
37115;SDS011;23025;41.996;23.098;2022-10-16T14:15:22;3.47;;;2.83;;
37115;SDS011;23025;41.996;23.098;2022-10-16T14:17:51;3.15;;;2.85;;
37115;SDS011;23025;41.996;23.098;2022-10-16T14:20:18;5.20;;;4.80;;
37115;SDS011;23025;41.996;23.098;2022-10-16T14:22:45;2.95;;;2.38;;
37115;SDS011;23025;41.996;23.098;2022-10-16T14:25:23;6.00;;;5.60;;
37115;SDS011;23025;41.996;23.098;2022-10-16T14:28:01;4.28;;;3.88;;
37115;SDS011;23025;41.996;23.098;2022-10-16T14:30:28;3.88;;;3.58;;
37115;SDS011;23025;41.996;23.098;2022-10-16T14:32:57;3.42;;;3.13;;
37115;SDS011;23025;41.996;23.098;2022-10-16T14:35:28;2.83;;;2.63;;
37115;SDS011;23025;41.996;23.098;2022-10-16T14:37:55;4.35;;;3.13;;
37115;SDS011;23025;41.996;23.098;2022-10-16T14:40:23;3.08;;;2.83;;
37115;SDS011;23025;41.996;23.098;2022-10-16T14:42:50;3.80;;;3.10;;
37115;SDS011;23025;41.996;23.098;2022-10-16T14:45:18;3.50;;;3.22;;
37115;SDS011;23025;41.996;23.098;2022-10-16T14:47:47;4.13;;;3.75;;
37115;SDS011;23025;41.996;23.098;2022-10-16T14:50:15;3.75;;;3.45;;
37115;SDS011;23025;41.996;23.098;2022-10-16T14:52:42;3.92;;;3.60;;
37115;SDS011;23025;41.996;23.098;2022-10-16T14:55:09;3.83;;;3.60;;
37115;SDS011;23025;41.996;23.098;2022-10-16T14:57:36;5.15;;;3.28;;